Time;durP1;ratioP1;P1;durP2;ratioP2;P2;SDS_P1;SDS_P2;PMS_P1;PMS_P2;Temp;Humidity;BMP_temperature;BMP_pressure;BME280_temperature;BME280_humidity;BME280_pressure;Samples;Min_cycle;Max_cycle;Signal;HPM_P1;HPM_P2
2021/08/15 00:02:08;;;;;;;8.30;4.27;;;19.40;97.30;;;;;;4956368;28;20319;-84
2021/08/15 00:04:34;;;;;;;8.83;4.30;;;19.40;97.30;;;;;;4956702;28;20520;-85
2021/08/15 00:06:59;;;;;;;16.20;5.70;;;19.40;97.30;;;;;;4957245;28;20419;-85
2021/08/15 00:09:25;;;;;;;8.97;4.97;;;19.40;97.30;;;;;;4958283;28;20183;-86
2021/08/15 00:11:50;;;;;;;8.10;5.40;;;19.40;97.30;;;;;;4963086;28;20205;-85
2021/08/15 00:14:16;;;;;;;13.40;4.93;;;19.40;97.30;;;;;;4963616;28;20186;-85
2021/08/15 00:16:42;;;;;;;7.93;5.20;;;19.40;97.30;;;;;;4956894;28;20182;-86
2021/08/15 00:19:07;;;;;;;7.80;4.77;;;19.40;97.30;;;;;;4957756;28;20607;-86
2021/08/15 00:21:34;;;;;;;7.60;4.07;;;19.40;97.30;;;;;;4957041;28;20202;-86
2021/08/15 00:24:00;;;;;;;11.77;4.57;;;19.40;97.30;;;;;;4957469;28;20304;-85
2021/08/15 00:26:26;;;;;;;9.27;5.00;;;19.40;97.30;;;;;;4956969;28;20426;-85
2021/08/15 00:28:52;;;;;;;9.60;5.13;;;19.40;97.30;;;;;;4956341;28;20425;-86
2021/08/15 00:31:17;;;;;;;9.00;4.23;;;19.40;97.30;;;;;;4973373;28;20203;-85
2021/08/15 00:33:43;;;;;;;10.73;5.27;;;19.40;97.30;;;;;;4956644;28;20178;-86
2021/08/15 00:36:08;;;;;;;10.30;5.33;;;19.30;97.30;;;;;;4973281;28;20270;-86
2021/08/15 00:38:34;;;;;;;10.47;5.53;;;19.20;97.30;;;;;;4954978;28;20190;-86
2021/08/15 00:41:01;;;;;;;10.80;4.90;;;19.10;97.30;;;;;;4954853;28;20230;-86
2021/08/15 00:43:28;;;;;;;8.23;4.70;;;19.10;97.30;;;;;;4955466;28;20210;-86
2021/08/15 00:45:54;;;;;;;7.90;4.03;;;19.00;97.30;;;;;;4955749;28;20429;-86
2021/08/15 00:48:19;;;;;;;9.03;5.20;;;19.00;97.30;;;;;;4955799;28;20422;-85
2021/08/15 00:50:45;;;;;;;12.00;4.97;;;19.00;97.30;;;;;;4955656;28;20559;-86
2021/08/15 00:53:10;;;;;;;8.73;4.97;;;18.90;97.30;;;;;;4957110;28;20246;-85
2021/08/15 00:55:36;;;;;;;8.73;5.73;;;18.90;97.30;;;;;;4957154;28;20187;-86
2021/08/15 00:58:06;;;;;;;8.30;5.03;;;18.80;97.30;;;;;;4957980;28;20190;-86
2021/08/15 01:00:32;;;;;;;6.70;4.53;;;18.80;97.30;;;;;;4957482;28;20751;-85
2021/08/15 01:02:58;;;;;;;12.33;5.03;;;18.70;97.30;;;;;;4956598;28;20462;-86
2021/08/15 01:05:24;;;;;;;11.07;5.20;;;18.70;97.30;;;;;;4956409;28;20412;-86
2021/08/15 01:07:50;;;;;;;7.63;4.47;;;18.70;97.30;;;;;;4974024;28;20965;-86
2021/08/15 01:10:16;;;;;;;13.63;5.40;;;18.60;97.30;;;;;;4956274;28;20297;-85
2021/08/15 01:12:41;;;;;;;7.40;4.70;;;18.60;97.30;;;;;;4955853;28;20178;-86
2021/08/15 01:15:09;;;;;;;8.40;4.80;;;18.60;97.30;;;;;;4955478;28;20511;-87
2021/08/15 01:17:35;;;;;;;11.30;4.40;;;18.60;97.30;;;;;;4955027;28;20222;-86
2021/08/15 01:20:00;;;;;;;11.70;4.70;;;18.60;97.30;;;;;;4955696;28;20449;-86
2021/08/15 01:22:27;;;;;;;12.50;4.97;;;18.60;97.30;;;;;;4955442;28;20273;-87
2021/08/15 01:24:54;;;;;;;6.67;4.13;;;18.50;97.30;;;;;;4956164;28;20190;-86
2021/08/15 01:27:20;;;;;;;8.80;5.17;;;18.50;97.30;;;;;;4957044;28;20420;-86
2021/08/15 01:29:47;;;;;;;10.73;4.70;;;18.50;97.30;;;;;;4974543;28;20825;-86
2021/08/15 01:32:16;;;;;;;5.70;3.30;;;18.40;97.30;;;;;;4957164;28;20434;-87
2021/08/15 01:34:41;;;;;;;8.03;4.33;;;18.40;97.30;;;;;;4974297;28;20456;-86
2021/08/15 01:37:10;;;;;;;9.30;5.13;;;18.40;97.30;;;;;;4956257;28;20438;-86
2021/08/15 01:39:39;;;;;;;7.90;4.53;;;18.40;97.30;;;;;;4955245;28;20186;-86
2021/08/15 01:42:04;;;;;;;11.90;4.70;;;18.30;97.30;;;;;;4973123;28;20461;-87
2021/08/15 01:44:30;;;;;;;8.20;4.43;;;18.30;97.30;;;;;;4973625;28;20476;-86
2021/08/15 01:46:55;;;;;;;9.67;5.20;;;18.20;97.30;;;;;;4955805;28;20269;-86
2021/08/15 01:49:21;;;;;;;14.30;4.93;;;18.10;97.30;;;;;;4954962;28;20224;-87
2021/08/15 01:51:46;;;;;;;10.73;4.63;;;18.00;97.30;;;;;;4954875;28;20206;-84
2021/08/15 01:54:11;;;;;;;11.97;4.40;;;18.00;97.30;;;;;;4972953;28;20215;-85
2021/08/15 01:56:37;;;;;;;9.17;4.10;;;17.90;97.30;;;;;;4955284;28;20186;-86
2021/08/15 01:59:03;;;;;;;9.53;4.70;;;17.90;97.30;;;;;;4955529;28;20186;-85
2021/08/15 02:01:28;;;;;;;8.87;4.40;;;17.80;97.30;;;;;;4955839;28;20257;-85
2021/08/15 02:03:54;;;;;;;11.10;4.73;;;17.80;97.30;;;;;;4956632;28;20214;-86
2021/08/15 02:06:19;;;;;;;7.27;4.00;;;17.80;97.30;;;;;;4974706;28;20191;-85
2021/08/15 02:08:48;;;;;;;9.70;4.50;;;17.70;97.30;;;;;;4956493;28;20182;-85
2021/08/15 02:11:15;;;;;;;11.30;4.57;;;17.70;97.30;;;;;;4955763;28;20281;-84
2021/08/15 02:13:41;;;;;;;10.20;4.60;;;17.70;97.30;;;;;;4955492;28;20418;-86
2021/08/15 02:16:06;;;;;;;9.10;4.67;;;17.60;97.30;;;;;;4955342;28;20496;-86
2021/08/15 02:18:32;;;;;;;13.87;4.60;;;17.60;97.30;;;;;;4955482;28;20213;-85
2021/08/15 02:20:57;;;;;;;9.73;4.40;;;17.50;97.30;;;;;;4954719;28;20278;-85
2021/08/15 02:23:23;;;;;;;9.67;4.90;;;17.50;97.30;;;;;;4957973;28;20580;-85
2021/08/15 02:25:49;;;;;;;7.57;4.30;;;17.50;97.30;;;;;;4975631;28;20747;-85
2021/08/15 02:28:14;;;;;;;11.97;4.80;;;17.50;97.30;;;;;;4958440;28;20262;-85
2021/08/15 02:30:40;;;;;;;7.37;4.80;;;17.40;97.30;;;;;;4975822;28;20668;-85
2021/08/15 02:33:05;;;;;;;12.83;4.87;;;17.40;97.30;;;;;;4976938;28;20185;-86
2021/08/15 02:35:31;;;;;;;13.07;4.90;;;17.30;97.30;;;;;;4959773;28;20186;-85
2021/08/15 02:37:58;;;;;;;7.20;4.00;;;17.30;97.30;;;;;;4977314;28;20664;-85
2021/08/15 02:40:24;;;;;;;8.50;4.27;;;17.20;97.30;;;;;;4959400;28;20231;-85
2021/08/15 02:42:51;;;;;;;10.23;5.13;;;17.10;97.30;;;;;;4960052;28;20865;-86
2021/08/15 02:45:19;;;;;;;16.03;4.37;;;17.00;97.30;;;;;;4958643;28;20182;-85
2021/08/15 02:47:45;;;;;;;10.07;4.83;;;17.00;97.30;;;;;;4958471;28;20477;-86
2021/08/15 02:50:12;;;;;;;11.70;4.80;;;17.00;97.30;;;;;;4958143;28;20417;-84
2021/08/15 02:52:38;;;;;;;11.30;4.70;;;17.00;97.30;;;;;;4975608;28;20425;-85
2021/08/15 02:55:04;;;;;;;11.20;4.80;;;17.00;97.30;;;;;;4974883;28;20472;-85
2021/08/15 02:57:30;;;;;;;10.60;4.30;;;17.00;97.30;;;;;;4957740;28;20183;-85
2021/08/15 02:59:55;;;;;;;7.30;4.37;;;16.90;97.30;;;;;;4957606;28;20425;-85
2021/08/15 03:02:21;;;;;;;7.97;4.10;;;16.90;97.30;;;;;;4958181;28;20194;-85
2021/08/15 03:04:47;;;;;;;12.43;5.00;;;16.90;97.30;;;;;;4975363;28;20175;-85
2021/08/15 03:07:15;;;;;;;8.97;4.60;;;16.90;97.30;;;;;;4975772;28;20461;-85
2021/08/15 03:09:40;;;;;;;11.70;4.90;;;16.80;97.30;;;;;;4959184;28;20203;-85
2021/08/15 03:12:06;;;;;;;6.80;4.20;;;16.80;97.30;;;;;;4959215;28;20485;-85
2021/08/15 03:14:31;;;;;;;12.03;4.93;;;16.70;97.30;;;;;;4958994;28;20198;-86
2021/08/15 03:16:57;;;;;;;7.87;4.03;;;16.60;97.30;;;;;;4958993;28;20233;-85
2021/08/15 03:19:23;;;;;;;12.07;4.30;;;16.60;97.30;;;;;;4957810;28;20198;-86
2021/08/15 03:21:48;;;;;;;8.20;4.40;;;16.50;97.30;;;;;;4958248;28;20569;-88
2021/08/15 03:24:14;;;;;;;7.60;4.50;;;16.50;97.30;;;;;;4957657;28;20712;-86
2021/08/15 03:26:46;;;;;;;11.20;5.00;;;16.50;97.30;;;;;;4957318;28;20675;-86
2021/08/15 03:29:16;;;;;;;13.03;4.40;;;16.50;97.30;;;;;;4974174;28;20182;-85
2021/08/15 03:31:43;;;;;;;8.40;4.50;;;16.50;97.30;;;;;;4974304;28;20429;-85
2021/08/15 03:34:09;;;;;;;7.20;4.17;;;16.50;97.30;;;;;;4974040;28;20406;-84
2021/08/15 03:36:35;;;;;;;21.63;5.87;;;16.50;97.30;;;;;;4957518;28;20493;-85
2021/08/15 03:39:01;;;;;;;10.10;4.03;;;16.50;97.30;;;;;;4957583;28;20532;-85
2021/08/15 03:41:26;;;;;;;10.03;4.60;;;16.50;97.30;;;;;;4957944;28;20245;-84
2021/08/15 03:43:52;;;;;;;7.80;4.00;;;16.50;97.30;;;;;;4958560;28;20233;-85
2021/08/15 03:46:17;;;;;;;8.83;4.17;;;16.40;97.30;;;;;;4959176;28;20737;-85
2021/08/15 03:48:43;;;;;;;7.63;4.13;;;16.40;97.30;;;;;;4958070;28;20190;-84
2021/08/15 03:51:09;;;;;;;11.43;4.30;;;16.30;97.30;;;;;;4958188;28;20246;-85
2021/08/15 03:53:34;;;;;;;14.73;4.67;;;16.30;97.30;;;;;;4957024;28;20186;-85
2021/08/15 03:56:00;;;;;;;10.27;4.40;;;16.20;97.30;;;;;;4957432;28;20182;-85
2021/08/15 03:58:25;;;;;;;10.27;4.00;;;16.20;97.30;;;;;;4956659;28;20182;-85
2021/08/15 04:00:51;;;;;;;6.50;4.30;;;16.20;97.30;;;;;;4956798;28;20198;-85
2021/08/15 04:03:16;;;;;;;7.77;3.97;;;16.10;97.30;;;;;;4956663;28;20207;-85
2021/08/15 04:05:42;;;;;;;9.73;4.30;;;16.10;97.30;;;;;;4956539;28;20531;-85
2021/08/15 04:08:08;;;;;;;9.03;3.83;;;16.10;97.30;;;;;;4956930;28;20563;-85
2021/08/15 04:10:35;;;;;;;7.60;3.93;;;16.00;97.30;;;;;;4956631;28;20233;-84
2021/08/15 04:13:00;;;;;;;7.40;3.80;;;16.00;97.30;;;;;;4957061;28;20441;-85
2021/08/15 04:15:27;;;;;;;7.87;3.90;;;16.00;97.30;;;;;;4957870;28;20434;-85
2021/08/15 04:17:53;;;;;;;7.67;3.60;;;16.00;97.30;;;;;;4958571;28;20401;-85
2021/08/15 04:20:21;;;;;;;11.83;4.30;;;16.00;97.30;;;;;;4958145;28;20870;-85
2021/08/15 04:22:48;;;;;;;13.33;4.77;;;16.00;97.30;;;;;;4974927;28;20466;-85
2021/08/15 04:25:13;;;;;;;6.03;3.93;;;16.00;97.30;;;;;;4956636;28;20476;-84
2021/08/15 04:27:39;;;;;;;16.47;5.03;;;15.90;97.30;;;;;;4956019;28;20840;-85
2021/08/15 04:30:06;;;;;;;9.73;5.00;;;15.90;97.30;;;;;;4955800;28;20225;-82
2021/08/15 04:32:32;;;;;;;19.93;8.63;;;15.90;97.30;;;;;;4955686;28;20178;-85
2021/08/15 04:34:57;;;;;;;9.10;4.60;;;16.00;97.30;;;;;;4955237;28;20816;-85
2021/08/15 04:37:23;;;;;;;9.83;5.00;;;16.00;97.30;;;;;;4955220;28;20645;-85
2021/08/15 04:39:48;;;;;;;10.50;4.80;;;16.00;97.30;;;;;;4955587;28;20189;-85
2021/08/15 04:42:14;;;;;;;13.00;4.53;;;15.90;97.30;;;;;;4955818;28;20233;-85
2021/08/15 04:44:40;;;;;;;9.70;4.53;;;15.90;97.30;;;;;;4954837;28;20804;-86
2021/08/15 04:47:05;;;;;;;9.70;5.40;;;15.90;97.30;;;;;;4955572;28;20551;-85
2021/08/15 04:49:31;;;;;;;9.27;4.73;;;15.90;97.30;;;;;;4956922;28;20667;-86
2021/08/15 04:51:57;;;;;;;10.57;4.80;;;15.90;97.30;;;;;;4956814;28;20187;-85
2021/08/15 04:54:26;;;;;;;12.63;5.80;;;15.90;97.30;;;;;;4956848;28;20492;-86
2021/08/15 04:56:52;;;;;;;15.10;5.17;;;15.90;97.30;;;;;;4956911;28;20206;-85
2021/08/15 04:59:18;;;;;;;11.00;5.00;;;15.90;97.30;;;;;;4956388;28;20868;-85
2021/08/15 05:01:43;;;;;;;8.50;4.10;;;15.90;97.30;;;;;;4955901;28;20865;-86
2021/08/15 05:04:10;;;;;;;10.03;4.63;;;15.90;97.30;;;;;;4956189;28;20229;-86
2021/08/15 05:06:35;;;;;;;11.83;4.67;;;16.00;97.30;;;;;;4955895;28;20426;-85
2021/08/15 05:09:01;;;;;;;11.13;4.90;;;16.00;97.30;;;;;;4956715;28;20178;-86
2021/08/15 05:11:26;;;;;;;8.70;4.47;;;16.00;97.30;;;;;;4955001;28;20218;-85
2021/08/15 05:13:52;;;;;;;14.20;4.67;;;16.00;97.30;;;;;;4958792;28;20244;-86
2021/08/15 05:16:18;;;;;;;11.53;4.20;;;16.00;97.30;;;;;;4962977;28;20398;-86
2021/08/15 05:18:43;;;;;;;12.27;4.90;;;16.10;97.30;;;;;;4963627;28;20273;-86
2021/08/15 05:21:12;;;;;;;11.80;4.87;;;16.10;97.30;;;;;;4963333;28;20256;-86
2021/08/15 05:23:38;;;;;;;9.50;3.90;;;16.20;97.30;;;;;;4965993;28;20205;-86
2021/08/15 05:26:03;;;;;;;9.37;5.73;;;16.20;97.30;;;;;;4965701;28;20418;-88
2021/08/15 05:28:29;;;;;;;7.00;4.27;;;16.20;97.30;;;;;;4984196;28;20174;-87
2021/08/15 05:30:54;;;;;;;9.83;5.30;;;16.20;97.30;;;;;;4964627;28;20199;-86
2021/08/15 05:33:20;;;;;;;6.47;3.97;;;16.20;97.30;;;;;;4964633;28;20186;-86
2021/08/15 05:35:45;;;;;;;14.63;4.97;;;16.20;97.30;;;;;;4963583;28;20189;-86
2021/08/15 05:38:11;;;;;;;14.23;5.27;;;16.30;97.30;;;;;;4981719;28;20663;-87
2021/08/15 05:40:36;;;;;;;13.77;4.87;;;16.30;97.30;;;;;;4964251;28;20204;-87
2021/08/15 05:43:02;;;;;;;8.70;4.60;;;16.40;97.30;;;;;;4960305;28;20206;-86
2021/08/15 05:45:28;;;;;;;11.40;4.93;;;16.50;97.30;;;;;;4961838;28;20210;-86
2021/08/15 05:47:54;;;;;;;11.80;5.73;;;16.60;97.30;;;;;;4961461;28;20179;-87
2021/08/15 05:50:20;;;;;;;11.37;4.33;;;16.60;97.30;;;;;;4964473;28;20425;-86
2021/08/15 05:52:45;;;;;;;11.23;5.43;;;16.70;97.30;;;;;;4960544;28;20197;-86
2021/08/15 05:55:11;;;;;;;13.50;4.83;;;16.80;97.30;;;;;;4965470;28;20216;-86
2021/08/15 05:57:37;;;;;;;12.30;4.90;;;16.90;97.30;;;;;;4966501;28;20185;-85
2021/08/15 06:00:05;;;;;;;10.83;4.50;;;17.00;97.30;;;;;;4967695;28;20421;-85
2021/08/15 06:02:30;;;;;;;14.63;5.40;;;17.00;97.30;;;;;;4967760;28;20187;-86
2021/08/15 06:04:56;;;;;;;9.60;5.33;;;17.20;97.30;;;;;;4968512;28;20510;-85
2021/08/15 06:07:21;;;;;;;13.20;5.97;;;17.20;97.30;;;;;;4968361;28;20233;-85
2021/08/15 06:09:47;;;;;;;14.13;5.20;;;17.40;97.30;;;;;;4968779;28;20174;-85
2021/08/15 06:12:12;;;;;;;14.00;6.67;;;17.50;97.30;;;;;;4965644;28;20194;-86
2021/08/15 06:14:38;;;;;;;11.03;5.87;;;17.60;97.30;;;;;;4968732;28;20290;-85
2021/08/15 06:17:03;;;;;;;23.33;6.63;;;17.70;97.30;;;;;;4966809;28;20187;-85
2021/08/15 06:19:30;;;;;;;14.47;5.40;;;17.80;97.30;;;;;;4984762;28;20181;-85
2021/08/15 06:21:55;;;;;;;16.53;6.43;;;17.90;97.30;;;;;;4966919;28;20234;-85
2021/08/15 06:24:21;;;;;;;14.00;5.40;;;18.00;97.30;;;;;;4965212;28;20493;-86
2021/08/15 06:26:46;;;;;;;10.40;5.17;;;18.10;97.30;;;;;;4966900;28;20191;-85
2021/08/15 06:29:11;;;;;;;13.43;5.90;;;18.20;97.30;;;;;;4969196;28;20586;-85
2021/08/15 06:31:37;;;;;;;14.67;5.23;;;18.30;97.30;;;;;;4963215;28;20297;-86
2021/08/15 06:34:03;;;;;;;12.23;5.70;;;18.40;97.30;;;;;;4971023;28;20627;-85
2021/08/15 06:36:29;;;;;;;12.47;5.47;;;18.50;97.30;;;;;;4965980;28;20216;-85
2021/08/15 06:38:55;;;;;;;15.53;6.10;;;18.60;97.30;;;;;;4975346;28;20246;-86
2021/08/15 06:41:20;;;;;;;12.90;5.03;;;18.70;97.30;;;;;;4981892;28;20515;-86
2021/08/15 06:43:46;;;;;;;17.00;5.67;;;18.80;97.30;;;;;;4996652;28;20673;-86
2021/08/15 06:46:12;;;;;;;11.83;5.83;;;18.90;97.30;;;;;;4972456;28;20194;-85
2021/08/15 06:48:38;;;;;;;13.07;5.37;;;19.00;97.30;;;;;;4972081;28;20426;-85
2021/08/15 06:51:04;;;;;;;12.50;5.30;;;19.00;97.30;;;;;;4970709;28;20799;-85
2021/08/15 06:53:30;;;;;;;18.10;6.43;;;19.10;97.30;;;;;;4960944;28;20433;-84
2021/08/15 06:56:01;;;;;;;10.40;4.73;;;19.20;97.30;;;;;;4959690;28;20285;-85
2021/08/15 06:58:27;;;;;;;10.00;5.00;;;19.30;97.30;;;;;;4954327;28;20433;-85
2021/08/15 07:00:53;;;;;;;9.97;5.00;;;19.40;97.30;;;;;;4955322;28;20923;-84
2021/08/15 07:03:19;;;;;;;14.70;5.60;;;19.40;97.30;;;;;;4972826;28;20820;-85
2021/08/15 07:05:44;;;;;;;11.10;5.90;;;19.50;97.30;;;;;;4956861;28;20522;-85
2021/08/15 07:08:10;;;;;;;12.97;5.70;;;19.70;97.30;;;;;;4972389;28;20191;-84
2021/08/15 07:10:35;;;;;;;16.40;6.60;;;19.80;97.30;;;;;;4976764;28;20199;-83
2021/08/15 07:13:06;;;;;;;13.40;7.17;;;19.90;97.30;;;;;;4976139;28;20186;-84
2021/08/15 07:15:31;;;;;;;14.73;5.97;;;20.10;97.30;;;;;;4955565;28;20267;-85
2021/08/15 07:17:57;;;;;;;16.30;5.80;;;20.20;97.30;;;;;;4957763;28;20900;-86
2021/08/15 07:20:24;;;;;;;13.90;5.20;;;20.20;97.30;;;;;;4956948;28;20210;-85
2021/08/15 07:22:50;;;;;;;12.40;4.70;;;20.30;97.30;;;;;;4956620;28;20457;-86
2021/08/15 07:25:19;;;;;;;12.37;5.17;;;20.40;97.30;;;;;;4956048;28;20484;-85
2021/08/15 07:27:45;;;;;;;11.97;5.13;;;20.50;97.30;;;;;;4954319;28;20206;-85
2021/08/15 07:30:12;;;;;;;12.87;5.33;;;20.60;97.30;;;;;;4956652;28;20521;-85
2021/08/15 07:32:57;;;;;;;11.43;6.20;;;20.60;97.30;;;;;;4976485;28;20419;-85
2021/08/15 07:35:23;;;;;;;7.97;5.00;;;20.70;97.30;;;;;;4956631;28;20422;-85
2021/08/15 07:37:49;;;;;;;11.57;5.57;;;20.80;97.30;;;;;;4956571;28;20437;-86
2021/08/15 07:40:16;;;;;;;15.37;5.50;;;20.90;97.30;;;;;;4976153;28;20454;-86
2021/08/15 07:42:41;;;;;;;16.90;5.70;;;21.00;97.30;;;;;;4959195;28;20220;-86
2021/08/15 07:45:08;;;;;;;12.20;5.83;;;21.10;97.30;;;;;;4959099;28;20493;-85
2021/08/15 07:47:33;;;;;;;12.20;6.20;;;21.30;97.30;;;;;;4957890;28;20181;-84
2021/08/15 07:49:59;;;;;;;12.13;5.27;;;21.30;97.30;;;;;;4957869;28;20422;-85
2021/08/15 07:52:24;;;;;;;12.67;5.20;;;21.50;97.30;;;;;;4957353;28;20197;-85
2021/08/15 07:54:50;;;;;;;17.00;6.13;;;21.60;97.30;;;;;;4950585;28;20193;-86
2021/08/15 07:57:16;;;;;;;11.77;5.30;;;21.60;96.70;;;;;;4957585;28;20197;-84
2021/08/15 07:59:41;;;;;;;10.83;5.70;;;21.60;97.00;;;;;;4957008;28;20181;-85
2021/08/15 08:02:07;;;;;;;10.50;5.40;;;21.60;96.20;;;;;;4982258;28;20438;-85
2021/08/15 08:04:33;;;;;;;11.37;5.00;;;21.60;96.70;;;;;;4956050;28;20212;-84
2021/08/15 08:07:02;;;;;;;9.93;5.37;;;21.70;96.90;;;;;;4956887;28;20182;-85
2021/08/15 08:09:28;;;;;;;12.30;5.10;;;21.70;95.50;;;;;;4956222;28;20468;-85
2021/08/15 08:11:55;;;;;;;11.47;5.47;;;21.80;95.40;;;;;;4954518;28;20469;-85
2021/08/15 08:14:21;;;;;;;13.23;5.23;;;21.90;96.60;;;;;;4964172;28;20178;-85
2021/08/15 08:16:46;;;;;;;12.80;5.07;;;22.00;97.20;;;;;;4963164;28;20457;-85
2021/08/15 08:19:12;;;;;;;13.33;5.30;;;22.00;95.60;;;;;;4957374;28;20186;-86
2021/08/15 08:21:37;;;;;;;13.23;5.30;;;22.10;96.60;;;;;;4955829;28;20698;-84
2021/08/15 08:24:06;;;;;;;18.80;5.93;;;22.10;95.20;;;;;;4957318;28;20202;-85
2021/08/15 08:26:32;;;;;;;11.87;4.77;;;22.10;93.70;;;;;;4957017;28;20175;-85
2021/08/15 08:28:57;;;;;;;14.03;5.17;;;22.20;94.20;;;;;;4956928;28;20429;-84
2021/08/15 08:31:23;;;;;;;11.10;4.90;;;22.30;93.50;;;;;;4956463;28;20529;-84
2021/08/15 08:33:48;;;;;;;14.47;5.17;;;22.40;94.30;;;;;;4953501;28;20182;-84
2021/08/15 08:36:14;;;;;;;12.90;5.07;;;22.40;92.70;;;;;;4955065;28;20194;-85
2021/08/15 08:38:39;;;;;;;11.43;4.80;;;22.40;94.80;;;;;;4955638;28;20183;-85
2021/08/15 08:41:05;;;;;;;13.23;4.90;;;22.50;94.20;;;;;;4952840;28;20709;-84
2021/08/15 08:43:32;;;;;;;15.10;4.83;;;22.60;94.80;;;;;;4954470;28;20207;-85
2021/08/15 08:45:58;;;;;;;8.70;5.20;;;22.70;91.60;;;;;;4956979;28;20679;-85
2021/08/15 08:48:24;;;;;;;13.70;5.63;;;22.80;92.50;;;;;;4954813;28;20457;-87
2021/08/15 08:50:52;;;;;;;11.27;4.30;;;22.90;92.50;;;;;;4972487;28;20441;-85
2021/08/15 08:53:18;;;;;;;12.43;5.03;;;23.00;93.20;;;;;;4955208;28;20879;-87
2021/08/15 08:55:43;;;;;;;11.43;5.30;;;23.10;91.40;;;;;;4957479;28;20939;-86
2021/08/15 08:58:09;;;;;;;11.00;4.47;;;23.20;91.30;;;;;;4954510;28;20448;-86
2021/08/15 09:00:35;;;;;;;11.97;4.80;;;23.30;92.30;;;;;;4972215;28;20265;-86
2021/08/15 09:03:00;;;;;;;10.27;4.30;;;23.30;91.50;;;;;;4955808;28;20201;-87
2021/08/15 09:05:31;;;;;;;9.80;5.00;;;23.30;89.80;;;;;;4956277;28;20213;-86
2021/08/15 09:07:58;;;;;;;7.57;4.50;;;23.40;91.00;;;;;;4972106;28;20189;-86
2021/08/15 09:10:38;;;;;;;13.07;5.00;;;23.40;90.80;;;;;;4957963;28;20442;-87
2021/08/15 09:13:09;;;;;;;12.20;5.03;;;23.40;90.60;;;;;;4954713;28;20429;-85
2021/08/15 09:15:36;;;;;;;12.67;4.50;;;23.40;89.70;;;;;;4955336;28;20485;-85
2021/08/15 09:18:02;;;;;;;10.30;5.00;;;23.40;90.00;;;;;;4955980;28;20843;-85
2021/08/15 09:20:42;;;;;;;11.17;4.40;;;23.50;89.10;;;;;;4952507;28;20481;-87
2021/08/15 09:23:40;;;;;;;14.57;4.90;;;23.50;89.20;;;;;;4974222;28;20549;-85
2021/08/15 09:26:20;;;;;;;9.20;3.90;;;23.70;90.40;;;;;;4906118;29;20462;-87
2021/08/15 09:28:49;;;;;;;12.07;4.93;;;23.80;90.20;;;;;;4971706;28;20422;-85
2021/08/15 09:31:23;;;;;;;10.93;4.33;;;23.90;89.80;;;;;;4971500;28;20434;-86
2021/08/15 09:33:50;;;;;;;11.47;5.17;;;24.10;89.40;;;;;;4961534;28;20417;-85
2021/08/15 09:36:42;;;;;;;10.03;4.03;;;24.10;88.40;;;;;;4959807;28;20512;-86
2021/08/15 09:39:08;;;;;;;10.93;4.47;;;24.10;88.20;;;;;;4970454;28;20437;-85
2021/08/15 09:41:48;;;;;;;11.70;5.70;;;24.10;88.60;;;;;;4960376;28;20501;-85
2021/08/15 09:44:32;;;;;;;14.23;4.20;;;24.20;88.20;;;;;;4957362;28;20457;-86
2021/08/15 09:47:10;;;;;;;13.63;5.20;;;24.20;88.70;;;;;;4958204;28;20418;-86
2021/08/15 09:49:44;;;;;;;8.43;4.30;;;24.30;86.90;;;;;;4958197;28;20418;-86
2021/08/15 09:52:15;;;;;;;10.40;4.50;;;24.30;86.50;;;;;;4959841;28;20600;-86
2021/08/15 09:54:59;;;;;;;6.17;3.80;;;24.30;86.30;;;;;;4976360;28;20854;-86
2021/08/15 09:57:30;;;;;;;8.10;4.40;;;24.40;86.70;;;;;;4957706;28;20438;-87
2021/08/15 09:59:58;;;;;;;10.67;4.47;;;24.50;88.00;;;;;;4959331;28;20429;-85
2021/08/15 10:02:24;;;;;;;8.20;3.77;;;24.60;86.30;;;;;;4960171;28;20450;-87
2021/08/15 10:04:51;;;;;;;9.43;4.10;;;24.80;85.70;;;;;;4959175;28;20508;-89
2021/08/15 10:07:16;;;;;;;12.33;4.07;;;24.80;85.40;;;;;;4960010;28;20454;-85
2021/08/15 10:09:44;;;;;;;9.83;4.40;;;24.90;85.90;;;;;;4958819;28;20497;-86
2021/08/15 10:12:09;;;;;;;12.57;4.10;;;25.00;85.20;;;;;;4959090;28;20194;-86
2021/08/15 10:14:35;;;;;;;9.00;4.50;;;25.10;84.00;;;;;;4959974;28;20444;-84
2021/08/15 10:17:10;;;;;;;6.50;3.63;;;25.10;84.50;;;;;;4962057;28;20598;-84
2021/08/15 10:19:45;;;;;;;7.10;3.57;;;25.10;83.90;;;;;;4961122;28;20182;-85
2021/08/15 10:22:18;;;;;;;11.90;3.60;;;25.10;85.40;;;;;;4959826;28;20445;-84
2021/08/15 10:24:46;;;;;;;8.77;4.27;;;25.20;84.30;;;;;;4958083;28;20504;-86
2021/08/15 10:27:40;;;;;;;10.10;4.00;;;25.20;85.40;;;;;;4975323;28;20425;-86
2021/08/15 10:30:37;;;;;;;8.60;3.57;;;25.40;84.90;;;;;;4954616;28;20426;-86
2021/08/15 10:33:03;;;;;;;11.20;4.30;;;25.50;84.80;;;;;;4959484;28;20460;-86
2021/08/15 10:35:30;;;;;;;11.33;3.90;;;25.60;83.30;;;;;;4973910;28;20936;-85
2021/08/15 10:37:59;;;;;;;8.30;3.20;;;25.60;83.60;;;;;;4957240;28;20186;-86
2021/08/15 10:40:43;;;;;;;5.67;3.40;;;25.80;84.70;;;;;;4957851;28;20496;-86
2021/08/15 10:43:22;;;;;;;6.23;3.43;;;25.90;83.90;;;;;;4959022;28;20475;-85
2021/08/15 10:46:06;;;;;;;15.40;4.07;;;26.00;83.80;;;;;;4960163;28;20422;-85
2021/08/15 10:48:32;;;;;;;10.10;3.97;;;26.00;82.00;;;;;;4977360;28;20422;-85
2021/08/15 10:50:59;;;;;;;5.10;3.53;;;25.90;83.60;;;;;;4977164;28;20429;-87
2021/08/15 10:53:31;;;;;;;6.50;3.50;;;25.90;82.40;;;;;;4959042;28;20551;-86
2021/08/15 10:56:04;;;;;;;7.10;3.10;;;25.80;81.10;;;;;;4959316;28;20437;-86
2021/08/15 10:58:48;;;;;;;5.60;3.30;;;25.80;82.90;;;;;;4959059;28;20440;-85
2021/08/15 11:01:15;;;;;;;5.90;3.50;;;25.90;81.60;;;;;;4958855;28;20516;-86
2021/08/15 11:03:46;;;;;;;8.23;3.93;;;25.90;81.60;;;;;;4976153;28;20492;-85
2021/08/15 11:06:30;;;;;;;7.17;3.30;;;25.90;81.50;;;;;;4958838;28;20446;-85
2021/08/15 11:09:05;;;;;;;4.73;3.00;;;25.90;82.00;;;;;;4959681;28;20418;-84
2021/08/15 11:11:33;;;;;;;9.70;3.27;;;25.90;81.50;;;;;;4959543;28;20434;-83
2021/08/15 11:14:17;;;;;;;5.13;3.37;;;26.10;82.90;;;;;;4959569;28;20453;-85
2021/08/15 11:16:44;;;;;;;7.90;3.33;;;26.10;82.30;;;;;;4959742;28;20451;-82
2021/08/15 11:19:10;;;;;;;7.17;3.03;;;26.20;81.30;;;;;;4958139;28;20422;-85
2021/08/15 11:22:13;;;;;;;7.10;3.57;;;26.30;81.40;;;;;;4958635;28;20544;-85
2021/08/15 11:24:45;;;;;;;7.40;4.13;;;26.50;80.80;;;;;;4960441;28;20999;-85
2021/08/15 11:27:19;;;;;;;4.70;2.90;;;26.70;80.10;;;;;;4961258;28;20422;-84
2021/08/15 11:29:46;;;;;;;5.73;2.80;;;26.70;81.10;;;;;;4960701;28;20430;-83
2021/08/15 11:32:17;;;;;;;3.90;2.90;;;26.80;79.90;;;;;;4960887;28;20430;-83
2021/08/15 11:35:06;;;;;;;6.63;3.10;;;26.90;79.30;;;;;;4960088;28;20480;-85
2021/08/15 11:37:35;;;;;;;10.07;3.10;;;27.00;80.20;;;;;;4960888;28;20974;-84
2021/08/15 11:40:24;;;;;;;5.70;2.87;;;27.00;78.90;;;;;;4958967;28;20534;-83
2021/08/15 11:43:24;;;;;;;10.63;3.73;;;27.10;79.90;;;;;;4959963;28;20649;-84
2021/08/15 11:45:54;;;;;;;7.53;3.20;;;27.10;80.00;;;;;;4973574;28;20964;-85
2021/08/15 11:48:25;;;;;;;6.30;3.20;;;27.10;80.30;;;;;;4971892;28;20430;-84
2021/08/15 11:50:58;;;;;;;7.27;3.50;;;27.10;79.50;;;;;;4956137;28;20445;-84
2021/08/15 11:53:29;;;;;;;10.43;3.80;;;27.10;80.40;;;;;;4974779;28;20410;-85
2021/08/15 11:55:57;;;;;;;3.90;2.93;;;27.10;82.80;;;;;;4958157;28;20426;-84
2021/08/15 11:58:23;;;;;;;9.07;2.87;;;27.20;81.20;;;;;;4957384;28;20473;-84
2021/08/15 12:00:49;;;;;;;4.03;2.73;;;27.20;78.40;;;;;;4957645;28;20544;-83
2021/08/15 12:03:21;;;;;;;7.63;3.17;;;27.20;78.80;;;;;;4957536;28;20202;-85
2021/08/15 12:06:00;;;;;;;6.87;4.07;;;27.20;80.30;;;;;;4974145;28;20520;-84
2021/08/15 12:08:44;;;;;;;6.73;3.30;;;27.10;81.20;;;;;;4957183;28;20512;-84
2021/08/15 12:11:30;;;;;;;8.43;3.20;;;27.30;81.40;;;;;;4957361;28;20454;-84
2021/08/15 12:14:08;;;;;;;6.17;2.73;;;27.30;77.90;;;;;;4976013;28;20493;-84
2021/08/15 12:16:34;;;;;;;8.30;3.10;;;27.40;78.40;;;;;;4958292;28;20444;-85
2021/08/15 12:19:00;;;;;;;6.80;3.00;;;27.50;79.00;;;;;;4958659;28;20426;-84
2021/08/15 12:21:38;;;;;;;6.80;3.07;;;27.60;78.60;;;;;;4957629;28;20461;-85
2021/08/15 12:24:19;;;;;;;5.20;2.67;;;27.80;79.10;;;;;;4957834;28;20454;-85
2021/08/15 12:26:58;;;;;;;5.30;2.70;;;27.80;76.10;;;;;;4958375;28;20454;-84
2021/08/15 12:29:30;;;;;;;5.30;2.80;;;28.00;79.30;;;;;;4975435;28;20405;-84
2021/08/15 12:32:22;;;;;;;4.73;2.80;;;28.30;80.50;;;;;;4974604;28;21134;-84
2021/08/15 12:34:53;;;;;;;6.13;3.00;;;28.70;79.00;;;;;;4952296;28;20484;-85
2021/08/15 12:37:21;;;;;;;5.50;2.60;;;28.80;74.30;;;;;;4958966;28;20506;-87
2021/08/15 12:40:08;;;;;;;3.70;2.47;;;28.70;73.70;;;;;;4957188;28;20523;-85
2021/08/15 12:42:35;;;;;;;3.40;2.47;;;28.50;74.60;;;;;;4967727;28;20462;-84
2021/08/15 12:45:06;;;;;;;5.53;2.67;;;28.20;74.60;;;;;;4974160;28;20422;-84
2021/08/15 12:47:37;;;;;;;4.43;2.67;;;28.00;74.40;;;;;;4955950;28;20442;-84